Time;durP1;ratioP1;P1;durP2;ratioP2;P2;SDS_P1;SDS_P2;PMS_P1;PMS_P2;Temp;Humidity;BMP_temperature;BMP_pressure;BME280_temperature;BME280_humidity;BME280_pressure;Samples;Min_cycle;Max_cycle;Signal;HPM_P1;HPM_P2
2023/08/31 00:02:04;;;;;;;;;2.00;1.50;;;;;18.96;42.79;100704.63;5080439;27;45173;-59
2023/08/31 00:04:30;;;;;;;;;2.00;1.00;;;;;18.95;43.02;100707.38;5080436;27;45295;-60
2023/08/31 00:06:56;;;;;;;;;7.75;4.50;;;;;18.93;43.04;100710.13;5080460;27;45500;-59
2023/08/31 00:09:23;;;;;;;;;4.50;2.75;;;;;18.92;43.05;100713.72;5080277;28;45234;-59
2023/08/31 00:11:49;;;;;;;;;3.25;2.25;;;;;18.90;43.11;100720.03;5080311;27;45268;-59
2023/08/31 00:14:15;;;;;;;;;4.75;3.00;;;;;18.86;42.83;100715.78;5079193;28;45308;-59
2023/08/31 00:16:40;;;;;;;;;2.50;2.50;;;;;18.88;43.12;100719.22;5080292;27;45444;-59
2023/08/31 00:19:05;;;;;;;;;4.00;4.00;;;;;18.86;42.97;100724.63;5079882;27;45420;-59
2023/08/31 00:21:31;;;;;;;;;4.00;2.00;;;;;18.86;42.89;100729.09;5113333;27;45405;-59
2023/08/31 00:23:56;;;;;;;;;5.75;3.00;;;;;18.87;42.89;100725.47;5080150;27;45303;-60
2023/08/31 00:26:21;;;;;;;;;5.25;3.00;;;;;18.84;43.26;100721.16;5095984;27;45230;-59
2023/08/31 00:28:47;;;;;;;;;3.75;3.00;;;;;18.84;43.34;100726.50;5113049;27;45996;-59
2023/08/31 00:31:12;;;;;;;;;3.00;3.00;;;;;18.82;42.86;100723.06;5080537;27;45242;-59
2023/08/31 00:33:38;;;;;;;;;4.50;2.50;;;;;18.83;43.40;100724.78;5080207;28;45297;-60
2023/08/31 00:36:03;;;;;;;;;3.00;2.00;;;;;18.81;43.16;100721.34;5080170;27;45497;-59
2023/08/31 00:38:30;;;;;;;;;3.25;3.25;;;;;18.77;43.35;100717.09;5079921;27;46358;-59
2023/08/31 00:40:55;;;;;;;;;2.50;2.50;;;;;18.76;43.39;100713.56;5080087;27;45236;-59
2023/08/31 00:43:20;;;;;;;;;3.50;3.00;;;;;18.76;43.35;100715.38;5080100;27;45458;-59
2023/08/31 00:45:49;;;;;;;;;4.50;3.00;;;;;18.74;43.60;100707.47;5080205;27;45213;-59
2023/08/31 00:48:16;;;;;;;;;6.00;3.00;;;;;18.74;43.35;100704.81;5079714;28;46244;-59
2023/08/31 00:50:43;;;;;;;;;7.50;4.75;;;;;18.73;43.58;100699.53;5079673;27;45373;-59
2023/08/31 00:53:08;;;;;;;;;4.00;4.00;;;;;18.71;43.62;100699.63;5079813;27;45235;-59
2023/08/31 00:55:34;;;;;;;;;4.50;3.00;;;;;18.72;43.58;100712.00;5079733;27;45248;-59
2023/08/31 00:58:00;;;;;;;;;3.00;3.00;;;;;18.71;43.52;100704.94;5079717;28;45245;-59
2023/08/31 01:00:52;;;;;;;;;3.25;3.25;;;;;18.71;43.48;100706.75;5080038;27;45309;-59
2023/08/31 01:03:27;;;;;;;;;3.75;3.00;;;;;18.70;43.39;100700.56;5068550;27;45459;-59
2023/08/31 01:06:08;;;;;;;;;6.00;3.50;;;;;18.68;43.33;100699.78;5079412;27;45529;-59
2023/08/31 01:08:37;;;;;;;;;4.00;4.00;;;;;18.68;43.71;100710.44;5066880;28;46100;-59
2023/08/31 01:11:34;;;;;;;;;5.75;4.75;;;;;18.67;43.77;100704.22;5079456;27;45323;-59
2023/08/31 01:14:15;;;;;;;;;4.00;3.00;;;;;18.65;43.87;100706.13;5081481;27;45256;-59
2023/08/31 01:16:43;;;;;;;;;4.00;4.00;;;;;18.64;43.67;100704.38;5083183;27;45291;-59
2023/08/31 01:19:17;;;;;;;;;5.50;4.75;;;;;18.64;43.40;100698.19;5082661;27;45498;-59
2023/08/31 01:21:47;;;;;;;;;6.25;4.00;;;;;18.65;43.83;100705.25;5083376;27;45165;-59
2023/08/31 01:24:13;;;;;;;;;4.00;4.00;;;;;18.67;43.50;100708.69;5082950;27;45536;-59
2023/08/31 01:26:41;;;;;;;;;4.00;4.00;;;;;18.67;43.74;100722.00;5082851;27;45427;-59
2023/08/31 01:29:06;;;;;;;;;10.25;6.00;;;;;18.67;43.57;100724.66;5082694;27;46499;-59
2023/08/31 01:31:32;;;;;;;;;5.00;2.50;;;;;18.62;43.97;100710.72;5082914;27;45342;-59
2023/08/31 01:33:57;;;;;;;;;5.00;4.00;;;;;18.63;43.91;100723.94;5115665;27;45520;-59
2023/08/31 01:36:27;;;;;;;;;4.25;4.25;;;;;18.62;43.92;100718.72;5082973;27;48875;-59
2023/08/31 01:39:06;;;;;;;;;4.00;4.00;;;;;18.63;43.83;100723.09;5081363;28;47136;-59
2023/08/31 01:41:35;;;;;;;;;5.50;3.25;;;;;18.61;43.63;100711.66;5082611;27;45342;-59
2023/08/31 01:44:02;;;;;;;;;6.25;5.50;;;;;18.62;43.93;100719.56;5082681;27;45290;-59
2023/08/31 01:46:27;;;;;;;;;4.50;3.50;;;;;18.59;43.64;100708.19;5082457;27;45579;-59
2023/08/31 01:48:53;;;;;;;;;7.75;4.75;;;;;18.58;43.97;100715.34;5082134;27;46163;-59
2023/08/31 01:51:18;;;;;;;;;4.00;4.00;;;;;18.58;44.12;100711.78;5082663;27;45324;-60
2023/08/31 01:53:44;;;;;;;;;7.25;5.25;;;;;18.57;43.82;100716.25;5082606;27;45334;-59
2023/08/31 01:56:09;;;;;;;;;5.25;4.00;;;;;18.55;44.23;100719.94;5115581;27;45437;-60
2023/08/31 01:58:35;;;;;;;;;4.75;4.00;;;;;18.55;44.08;100726.09;5082479;27;45770;-59
2023/08/31 02:01:00;;;;;;;;;5.00;5.00;;;;;18.53;44.31;100728.00;5082517;27;45322;-59
2023/08/31 02:03:25;;;;;;;;;7.50;6.00;;;;;18.49;44.37;100713.13;5082507;27;45310;-59
2023/08/31 02:05:51;;;;;;;;;5.00;4.75;;;;;18.49;44.28;100710.47;5081941;27;51300;-59
2023/08/31 02:08:17;;;;;;;;;5.75;4.75;;;;;18.49;44.06;100711.31;5081664;28;56640;-59
2023/08/31 02:10:43;;;;;;;;;4.75;3.50;;;;;18.48;44.13;100714.06;5082268;27;45257;-59
2023/08/31 02:13:09;;;;;;;;;5.75;4.50;;;;;18.48;44.34;100720.22;5082319;27;45316;-59
2023/08/31 02:15:38;;;;;;;;;6.00;5.00;;;;;18.47;44.44;100710.50;5097970;27;45428;-60
2023/08/31 02:18:03;;;;;;;;;6.50;5.50;;;;;18.46;44.25;100710.59;5082133;27;46404;-60
2023/08/31 02:20:30;;;;;;;;;6.25;5.50;;;;;18.44;44.26;100713.34;5081882;28;45355;-59
2023/08/31 02:22:55;;;;;;;;;6.50;5.00;;;;;18.40;44.45;100709.09;5082267;27;45322;-59
2023/08/31 02:25:21;;;;;;;;;10.75;7.00;;;;;18.40;44.36;100711.75;5082106;27;45323;-59
2023/08/31 02:27:46;;;;;;;;;6.00;5.75;;;;;18.37;44.55;100714.56;5082109;27;46668;-59
2023/08/31 02:30:12;;;;;;;;;6.50;5.00;;;;;18.36;44.53;100715.47;5082054;27;45292;-60
2023/08/31 02:32:37;;;;;;;;;3.00;3.00;;;;;18.34;44.64;100712.91;5082206;27;45346;-59
2023/08/31 02:35:02;;;;;;;;;5.50;5.50;;;;;18.35;44.85;100719.06;5081547;27;45390;-59
2023/08/31 02:37:28;;;;;;;;;4.00;4.00;;;;;18.33;44.45;100716.50;5080542;28;46282;-59
2023/08/31 02:39:53;;;;;;;;;5.25;4.50;;;;;18.31;44.57;100704.19;5082039;27;45389;-60
2023/08/31 02:42:18;;;;;;;;;5.25;5.25;;;;;18.31;44.62;100710.41;5115038;27;45416;-59
2023/08/31 02:44:44;;;;;;;;;5.75;4.00;;;;;18.32;44.75;100713.91;5081748;27;45306;-59
2023/08/31 02:47:09;;;;;;;;;7.50;4.75;;;;;18.31;44.57;100717.50;5081611;27;45414;-59
2023/08/31 02:49:34;;;;;;;;;7.00;7.00;;;;;18.28;45.16;100722.97;5081753;27;45142;-59
2023/08/31 02:52:00;;;;;;;;;5.25;4.25;;;;;18.29;44.93;100714.06;5081579;27;45414;-59
2023/08/31 02:54:25;;;;;;;;;7.25;6.25;;;;;18.27;45.00;100715.94;5081762;27;45385;-59
2023/08/31 02:56:50;;;;;;;;;6.75;6.00;;;;;18.26;45.00;100723.03;5081182;28;47996;-59
2023/08/31 02:59:17;;;;;;;;;3.75;3.75;;;;;18.25;44.75;100720.44;5081679;27;45216;-59
2023/08/31 03:01:46;;;;;;;;;5.25;5.25;;;;;18.26;44.99;100728.34;5081467;27;45438;-59
2023/08/31 03:04:11;;;;;;;;;5.25;5.00;;;;;18.20;44.82;100718.00;5081204;27;45335;-59
2023/08/31 03:06:36;;;;;;;;;6.50;5.00;;;;;18.24;45.10;100716.06;5080990;28;46181;-60
2023/08/31 03:09:02;;;;;;;;;5.75;5.00;;;;;18.24;44.79;100716.06;5081351;28;45344;-59
2023/08/31 03:11:27;;;;;;;;;7.00;5.75;;;;;18.22;45.14;100718.78;5081341;27;45351;-59
2023/08/31 03:13:53;;;;;;;;;5.50;4.00;;;;;18.19;45.04;100709.16;5081207;28;51411;-59
2023/08/31 03:16:18;;;;;;;;;6.50;5.00;;;;;18.17;45.06;100715.47;5081095;27;45351;-60
2023/08/31 03:18:43;;;;;;;;;6.00;4.50;;;;;18.16;44.97;100706.66;5081192;27;45195;-59
2023/08/31 03:21:09;;;;;;;;;2.75;2.00;;;;;18.15;45.22;100712.91;5081248;27;45244;-60
2023/08/31 03:23:34;;;;;;;;;4.00;4.00;;;;;18.12;45.38;100707.72;5081249;27;45165;-59
2023/08/31 03:26:00;;;;;;;;;4.50;3.25;;;;;18.10;45.12;100704.28;5080428;27;52137;-60
2023/08/31 03:28:25;;;;;;;;;1.00;1.00;;;;;18.10;45.31;100704.28;5080991;27;45238;-59
2023/08/31 03:30:56;;;;;;;;;4.00;2.50;;;;;18.09;45.19;100701.69;5081110;27;45200;-59
2023/08/31 03:33:22;;;;;;;;;4.75;3.50;;;;;18.07;45.53;100704.41;5081361;27;45674;-59
2023/08/31 03:35:47;;;;;;;;;8.50;5.75;;;;;18.06;45.55;100709.81;5079762;28;46188;-60
2023/08/31 03:38:12;;;;;;;;;4.00;4.00;;;;;18.03;45.51;100702.84;5080688;28;54362;-59
2023/08/31 03:40:38;;;;;;;;;6.00;4.75;;;;;18.03;45.51;100705.50;5080711;28;45260;-59
2023/08/31 03:43:03;;;;;;;;;5.75;4.50;;;;;18.02;45.56;100711.72;5081174;27;45298;-59
2023/08/31 03:45:28;;;;;;;;;5.75;4.25;;;;;17.99;45.86;100707.41;5080563;27;45573;-60
2023/08/31 03:47:54;;;;;;;;;7.50;6.00;;;;;17.97;45.61;100700.44;5114066;27;45271;-60
2023/08/31 03:50:20;;;;;;;;;3.75;3.75;;;;;17.97;45.40;100692.47;5080593;27;45248;-59
2023/08/31 03:52:45;;;;;;;;;7.00;4.25;;;;;17.97;45.56;100700.44;5080750;27;45472;-59
2023/08/31 03:55:10;;;;;;;;;3.75;3.75;;;;;17.95;45.66;100699.66;5080358;27;46020;-59
2023/08/31 03:57:36;;;;;;;;;5.00;4.00;;;;;17.95;45.85;100699.66;5080711;27;45205;-60
2023/08/31 04:00:04;;;;;;;;;6.50;5.50;;;;;17.93;45.61;100706.81;5080688;27;45260;-59
2023/08/31 04:02:31;;;;;;;;;5.75;5.75;;;;;17.90;45.37;100706.94;5080651;27;45542;-59
2023/08/31 04:04:57;;;;;;;;;4.00;3.25;;;;;17.89;45.77;100711.41;5080092;28;45338;-59
2023/08/31 04:07:22;;;;;;;;;7.00;6.00;;;;;17.86;45.73;100699.13;5080481;27;45231;-59
2023/08/31 04:09:48;;;;;;;;;4.25;2.25;;;;;17.86;45.65;100701.78;5080365;28;45220;-59
2023/08/31 04:12:13;;;;;;;;;4.50;4.00;;;;;17.84;45.90;100702.78;5080224;28;50216;-59
2023/08/31 04:14:38;;;;;;;;;4.50;4.50;;;;;17.83;45.88;100711.69;5080206;27;47687;-59
2023/08/31 04:17:04;;;;;;;;;8.75;4.75;;;;;17.83;45.95;100709.03;5080883;27;45249;-59
2023/08/31 04:19:30;;;;;;;;;6.25;4.00;;;;;17.80;45.84;100707.38;5080171;27;45323;-59
2023/08/31 04:21:55;;;;;;;;;5.50;5.50;;;;;17.79;46.06;100716.25;5080347;27;45460;-59
2023/08/31 04:24:20;;;;;;;;;5.00;4.25;;;;;17.74;45.94;100715.59;5079937;28;47290;-59
2023/08/31 04:26:47;;;;;;;;;5.00;4.50;;;;;17.73;46.00;100713.03;5080160;27;45317;-59
2023/08/31 04:29:13;;;;;;;;;5.00;4.50;;;;;17.73;45.79;100715.69;5112798;27;45469;-59
2023/08/31 04:31:39;;;;;;;;;7.50;5.00;;;;;17.71;46.24;100713.94;5080310;27;45342;-59
2023/08/31 04:34:04;;;;;;;;;5.50;4.50;;;;;17.70;46.23;100717.53;5079896;27;45369;-59
2023/08/31 04:36:30;;;;;;;;;7.00;7.00;;;;;17.69;46.17;100713.16;5080261;27;45240;-59
2023/08/31 04:38:55;;;;;;;;;6.75;6.00;;;;;17.68;46.11;100711.44;5080141;27;45366;-59
2023/08/31 04:41:20;;;;;;;;;8.00;5.75;;;;;17.67;46.18;100714.16;5079705;28;56193;-59
2023/08/31 04:43:49;;;;;;;;;6.00;5.00;;;;;17.64;46.17;100727.59;5079874;27;45248;-59
2023/08/31 04:46:15;;;;;;;;;6.50;5.50;;;;;17.64;46.34;100724.94;5078609;28;45251;-59
2023/08/31 04:48:40;;;;;;;;;5.00;5.00;;;;;17.62;46.23;100724.13;5080844;27;45252;-59
2023/08/31 04:51:06;;;;;;;;;8.25;6.75;;;;;17.60;46.41;100720.69;5084254;27;45267;-59
2023/08/31 04:53:31;;;;;;;;;5.00;5.00;;;;;17.58;46.42;100722.53;5083309;27;46267;-59
2023/08/31 04:55:57;;;;;;;;;8.75;6.00;;;;;17.58;46.52;100723.38;5083491;27;45340;-59
2023/08/31 04:58:22;;;;;;;;;10.25;8.25;;;;;17.58;46.21;100730.50;5083675;27;45485;-59
2023/08/31 05:00:48;;;;;;;;;8.00;6.50;;;;;17.58;46.25;100730.50;5083726;27;45327;-59
2023/08/31 05:03:14;;;;;;;;;6.75;6.75;;;;;17.57;46.28;100728.78;5083174;27;45328;-59
2023/08/31 05:05:39;;;;;;;;;10.25;8.75;;;;;17.54;46.51;100725.31;5083187;27;45427;-59
2023/08/31 05:08:05;;;;;;;;;10.25;7.50;;;;;17.54;46.61;100732.44;5081688;28;45552;-59
2023/08/31 05:10:30;;;;;;;;;9.25;7.50;;;;;17.50;46.47;100731.69;5083250;27;45311;-59
2023/08/31 05:12:56;;;;;;;;;8.00;8.00;;;;;17.51;46.45;100740.56;5082848;27;50947;-59
2023/08/31 05:15:22;;;;;;;;;8.75;6.25;;;;;17.50;46.45;100737.00;5083267;27;45465;-59
2023/08/31 05:17:48;;;;;;;;;38.75;31.00;;;;;17.47;47.13;100730.97;5083085;27;45387;-59
2023/08/31 05:20:14;;;;;;;;;13.50;12.25;;;;;17.45;46.61;100722.22;5082910;27;45383;-59
2023/08/31 05:22:39;;;;;;;;;12.50;7.50;;;;;17.46;46.72;100729.22;5082912;27;46424;-59
2023/08/31 05:25:04;;;;;;;;;10.50;8.00;;;;;17.46;46.67;100735.41;5082844;27;45226;-59
2023/08/31 05:27:30;;;;;;;;;11.50;8.50;;;;;17.45;46.77;100736.34;5083054;28;45267;-59
2023/08/31 05:29:55;;;;;;;;;7.50;7.50;;;;;17.43;46.50;100732.88;5083120;27;45194;-59
2023/08/31 05:32:20;;;;;;;;;5.50;4.00;;;;;17.44;46.85;100737.28;5082696;27;45235;-59
2023/08/31 05:34:46;;;;;;;;;8.50;5.75;;;;;17.43;46.77;100740.84;5098247;27;50932;-59
2023/08/31 05:37:11;;;;;;;;;7.25;5.25;;;;;17.45;46.85;100748.78;5082902;28;45307;-59
2023/08/31 05:39:37;;;;;;;;;5.00;5.00;;;;;17.43;46.85;100748.81;5082968;27;45173;-59
2023/08/31 05:42:02;;;;;;;;;7.75;5.00;;;;;17.42;47.12;100752.44;5082813;27;45292;-59
2023/08/31 05:44:28;;;;;;;;;5.75;5.00;;;;;17.43;47.24;100756.78;5082772;27;45433;-59
2023/08/31 05:46:53;;;;;;;;;7.50;5.75;;;;;17.43;47.30;100756.78;5081385;28;45530;-59
2023/08/31 05:49:18;;;;;;;;;7.50;6.00;;;;;17.43;47.23;100756.78;5115504;27;45444;-59
2023/08/31 05:51:44;;;;;;;;;10.50;5.75;;;;;17.44;47.15;100758.53;5082156;28;53866;-59
2023/08/31 05:54:11;;;;;;;;;6.00;5.00;;;;;17.46;47.26;100762.00;5082769;27;45264;-59
2023/08/31 05:56:39;;;;;;;;;6.00;5.00;;;;;17.44;47.38;100753.22;5115697;27;45279;-59
2023/08/31 05:59:05;;;;;;;;;7.50;6.50;;;;;17.48;47.27;100765.44;5081968;27;45335;-59
2023/08/31 06:01:30;;;;;;;;;5.50;3.50;;;;;17.48;47.49;100765.44;5082088;27;45327;-59
2023/08/31 06:03:55;;;;;;;;;6.00;5.00;;;;;17.48;47.41;100770.75;5082415;27;45279;-59
2023/08/31 06:06:21;;;;;;;;;7.25;5.75;;;;;17.49;47.21;100769.81;5082499;27;45235;-59
2023/08/31 06:08:46;;;;;;;;;6.75;5.00;;;;;17.50;47.51;100770.69;5082376;28;45291;-59
2023/08/31 06:11:13;;;;;;;;;8.25;6.75;;;;;17.49;47.45;100768.97;5082100;27;45596;-59
2023/08/31 06:13:38;;;;;;;;;10.75;8.75;;;;;17.53;47.40;100778.53;5082311;27;45432;-59
2023/08/31 06:16:04;;;;;;;;;7.75;6.75;;;;;17.53;47.74;100774.09;5082941;27;45507;-59
2023/08/31 06:18:29;;;;;;;;;9.00;6.25;;;;;17.55;47.59;100771.34;5082144;27;45355;-58
2023/08/31 06:20:54;;;;;;;;;5.75;3.75;;;;;17.54;47.49;100773.13;5082002;27;46187;-59
2023/08/31 06:23:20;;;;;;;;;8.50;6.25;;;;;17.57;47.63;100779.25;5082306;27;45340;-59
2023/08/31 06:25:48;;;;;;;;;4.75;2.50;;;;;17.58;47.59;100773.00;5081995;27;45492;-59
2023/08/31 06:28:13;;;;;;;;;6.25;5.25;;;;;17.60;47.42;100773.81;5082384;27;45585;-59
2023/08/31 06:30:38;;;;;;;;;7.75;5.25;;;;;17.60;47.64;100773.81;5081729;27;46060;-59
2023/08/31 06:33:04;;;;;;;;;8.75;5.00;;;;;17.62;47.45;100766.63;5082144;27;45266;-59
2023/08/31 06:35:29;;;;;;;;;6.50;5.25;;;;;17.64;47.75;100775.41;5114708;27;45325;-59
2023/08/31 06:37:55;;;;;;;;;6.00;4.00;;;;;17.65;47.77;100772.69;5082136;28;45224;-59
2023/08/31 06:40:21;;;;;;;;;8.00;5.50;;;;;17.68;47.48;100771.69;5081763;27;47015;-59
2023/08/31 06:42:46;;;;;;;;;9.75;4.50;;;;;17.68;47.66;100777.00;5080629;28;45267;-59
2023/08/31 06:45:12;;;;;;;;;5.25;5.00;;;;;17.70;47.89;100770.69;5081497;28;48407;-59
2023/08/31 06:47:37;;;;;;;;;8.00;5.75;;;;;17.74;47.75;100773.22;5081836;27;45576;-59
2023/08/31 06:50:03;;;;;;;;;2.75;2.75;;;;;17.74;47.71;100768.75;5081365;27;46125;-59
2023/08/31 06:52:28;;;;;;;;;8.25;4.50;;;;;17.76;47.85;100776.66;5081872;27;45342;-59
2023/08/31 06:54:57;;;;;;;;;7.00;5.75;;;;;17.76;48.13;100774.00;5080088;28;45235;-59
2023/08/31 06:57:23;;;;;;;;;4.50;3.75;;;;;17.78;48.11;100772.16;5081725;27;45426;-59
2023/08/31 06:59:48;;;;;;;;;5.25;5.25;;;;;17.81;47.87;100782.63;5081275;27;45287;-59
2023/08/31 07:02:14;;;;;;;;;7.00;6.00;;;;;17.84;48.12;100782.50;5081454;27;45210;-59
2023/08/31 07:04:40;;;;;;;;;8.00;3.00;;;;;17.84;48.03;100786.03;5081467;27;45337;-59
2023/08/31 07:07:06;;;;;;;;;6.50;5.25;;;;;17.86;47.93;100783.28;5081255;27;45547;-59
2023/08/31 07:09:31;;;;;;;;;4.50;4.00;;;;;17.86;48.08;100789.50;5081126;28;46255;-59
2023/08/31 07:11:58;;;;;;;;;6.50;4.25;;;;;17.87;48.15;100788.56;5080368;27;45321;-59
2023/08/31 07:14:23;;;;;;;;;7.75;4.00;;;;;17.90;48.42;100789.34;5081602;27;45334;-59
2023/08/31 07:16:48;;;;;;;;;5.00;5.00;;;;;17.89;48.19;100791.16;5081241;27;45320;-59
2023/08/31 07:19:14;;;;;;;;;5.00;5.00;;;;;17.93;48.40;100786.56;5080815;27;46009;-59
2023/08/31 07:21:39;;;;;;;;;6.00;4.50;;;;;17.95;48.56;100798.00;5079925;28;45406;-59
2023/08/31 07:24:05;;;;;;;;;6.25;5.75;;;;;17.96;48.51;100795.31;5081111;27;45302;-60
2023/08/31 07:26:30;;;;;;;;;9.00;5.25;;;;;17.97;48.27;100796.16;5114054;27;45325;-59
2023/08/31 07:28:55;;;;;;;;;7.00;4.25;;;;;18.00;48.28;100798.69;5080879;27;45529;-59
2023/08/31 07:31:21;;;;;;;;;11.25;6.75;;;;;18.03;48.34;100806.53;5081348;27;45343;-59
2023/08/31 07:33:46;;;;;;;;;6.75;5.50;;;;;18.06;48.65;100805.50;5081130;27;45354;-59
2023/08/31 07:36:11;;;;;;;;;3.25;3.00;;;;;18.06;48.50;100803.72;5079743;28;45305;-59
2023/08/31 07:38:36;;;;;;;;;5.75;5.00;;;;;18.07;48.29;100810.75;5080788;27;46184;-59
2023/08/31 07:41:04;;;;;;;;;6.50;4.00;;;;;18.10;48.48;100820.41;5081118;27;45451;-59
2023/08/31 07:43:29;;;;;;;;;5.50;4.00;;;;;18.11;48.49;100822.13;5080909;27;45243;-59
2023/08/31 07:45:55;;;;;;;;;6.00;4.00;;;;;18.08;48.61;100815.16;5080737;27;45421;-59
2023/08/31 07:48:20;;;;;;;;;6.25;5.00;;;;;18.15;48.35;100813.97;5080428;27;45334;-59
2023/08/31 07:50:45;;;;;;;;;7.25;4.00;;;;;18.17;48.58;100817.38;5080951;27;45284;-59
2023/08/31 07:53:11;;;;;;;;;5.00;3.50;;;;;18.19;48.38;100818.19;5080772;27;45522;-60
2023/08/31 07:55:37;;;;;;;;;5.00;4.00;;;;;18.21;48.53;100825.25;5080803;27;45240;-59
2023/08/31 07:58:02;;;;;;;;;5.00;4.00;;;;;18.23;48.22;100828.72;5080455;27;47154;-59
2023/08/31 08:00:28;;;;;;;;;4.00;4.00;;;;;18.25;48.48;100833.03;5081006;27;45525;-59
2023/08/31 08:02:53;;;;;;;;;8.25;4.00;;;;;18.28;48.33;100829.38;5080586;28;45419;-59
2023/08/31 08:05:18;;;;;;;;;4.00;3.00;;;;;18.29;48.16;100828.44;5080482;27;45387;-59
2023/08/31 08:07:44;;;;;;;;;6.25;4.25;;;;;18.35;48.29;100838.78;5080289;27;46076;-59
2023/08/31 08:10:11;;;;;;;;;3.00;3.00;;;;;18.39;48.35;100836.84;5080428;27;45446;-59
2023/08/31 08:12:38;;;;;;;;;5.50;4.50;;;;;18.44;48.11;100834.84;5080514;28;45527;-59
2023/08/31 08:15:04;;;;;;;;;5.50;5.00;;;;;18.49;48.40;100832.84;5080262;27;45271;-59
2023/08/31 08:17:29;;;;;;;;;4.00;4.00;;;;;18.55;48.54;100837.00;5080091;27;45251;-59
2023/08/31 08:19:54;;;;;;;;;6.00;5.00;;;;;18.61;47.90;100834.91;5080449;27;45608;-59
2023/08/31 08:22:20;;;;;;;;;4.75;3.50;;;;;18.68;48.48;100838.19;5080382;27;45631;-59
2023/08/31 08:24:45;;;;;;;;;6.00;3.00;;;;;18.74;48.45;100827.25;5080189;27;45703;-59
2023/08/31 08:27:10;;;;;;;;;4.25;4.00;;;;;18.81;48.39;100827.81;5080045;27;46575;-59
2023/08/31 08:29:35;;;;;;;;;4.00;2.25;;;;;18.84;48.28;100822.31;5080235;27;45257;-59
2023/08/31 08:32:03;;;;;;;;;2.00;2.00;;;;;18.95;48.30;100830.69;5080358;28;45189;-59
2023/08/31 08:34:28;;;;;;;;;6.50;3.25;;;;;19.01;48.17;100824.22;5079963;27;45620;-59
2023/08/31 08:36:54;;;;;;;;;4.00;3.00;;;;;19.06;47.87;100822.22;5112875;27;46146;-59
2023/08/31 08:39:19;;;;;;;;;4.00;2.00;;;;;19.09;48.11;100822.03;5080234;27;45291;-59
2023/08/31 08:41:45;;;;;;;;;3.75;3.75;;;;;19.13;47.86;100820.97;5080042;27;45272;-59
2023/08/31 08:44:12;;;;;;;;;3.25;3.25;;;;;19.21;47.93;100823.25;5080209;27;45314;-59
2023/08/31 08:46:38;;;;;;;;;4.00;3.50;;;;;19.24;47.62;100827.56;5079920;27;45319;-59
2023/08/31 08:49:05;;;;;;;;;6.75;3.50;;;;;19.28;47.54;100830.03;5079813;27;45185;-59
2023/08/31 08:51:31;;;;;;;;;9.50;5.25;;;;;19.34;47.57;100828.84;5079095;28;45355;-59
2023/08/31 08:53:59;;;;;;;;;2.50;2.50;;;;;19.40;47.80;100833.00;5079793;27;45492;-59
2023/08/31 08:56:24;;;;;;;;;5.75;2.50;;;;;19.44;47.88;100840.75;5079549;27;45302;-60
2023/08/31 08:58:50;;;;;;;;;7.00;6.75;;;;;19.48;47.51;100839.69;5079731;27;47654;-59
2023/08/31 09:01:17;;;;;;;;;5.75;3.00;;;;;19.53;47.39;100836.78;5080130;28;45528;-59
2023/08/31 09:03:43;;;;;;;;;5.00;2.00;;;;;19.59;47.49;100854.28;5079731;27;45251;-59
2023/08/31 09:06:10;;;;;;;;;3.00;3.00;;;;;19.61;47.20;100841.75;5079544;27;46295;-60
2023/08/31 09:08:37;;;;;;;;;3.75;3.00;;;;;19.62;47.01;100843.44;5079948;28;45374;-60
2023/08/31 09:11:02;;;;;;;;;5.00;4.25;;;;;19.63;46.95;100848.72;5079615;27;45205;-60
2023/08/31 09:13:29;;;;;;;;;7.25;5.25;;;;;19.65;46.98;100844.16;5079975;27;45297;-59
2023/08/31 09:15:56;;;;;;;;;8.50;6.00;;;;;19.68;47.49;100839.63;5079503;28;47298;-60
2023/08/31 09:18:26;;;;;;;;;6.25;5.00;;;;;19.69;47.26;100836.88;5079715;27;45357;-60
2023/08/31 09:20:53;;;;;;;;;5.25;3.00;;;;;19.69;46.77;100839.53;5079525;28;45589;-59
2023/08/31 09:23:19;;;;;;;;;3.75;3.25;;;;;19.70;47.26;100835.94;5079845;27;45408;-59
2023/08/31 09:25:48;;;;;;;;;6.00;5.50;;;;;19.69;46.75;100839.53;5079017;27;45248;-59
2023/08/31 09:28:16;;;;;;;;;4.75;3.00;;;;;19.72;47.04;100831.41;5079379;27;45264;-59
2023/08/31 09:30:42;;;;;;;;;6.50;4.50;;;;;19.74;47.29;100831.31;5079378;28;45204;-59
2023/08/31 09:33:09;;;;;;;;;4.00;3.25;;;;;19.77;46.74;100841.81;5079505;28;45488;-60
2023/08/31 09:35:40;;;;;;;;;3.50;3.50;;;;;19.80;46.92;100839.84;5081322;27;46303;-60
2023/08/31 09:38:08;;;;;;;;;2.75;2.00;;;;;19.84;46.76;100842.41;5082792;27;45367;-59
2023/08/31 09:40:33;;;;;;;;;4.25;3.00;;;;;19.88;46.75;100843.97;5082690;27;45284;-60
2023/08/31 09:42:58;;;;;;;;;4.75;4.75;;;;;19.89;47.12;100829.69;5081618;28;45998;-59
2023/08/31 09:45:34;;;;;;;;;6.25;3.50;;;;;19.90;46.85;100828.72;5115412;27;47026;-60
2023/08/31 09:48:01;;;;;;;;;3.25;2.25;;;;;19.94;46.88;100823.16;5082769;27;45307;-59
2023/08/31 09:50:28;;;;;;;;;5.25;3.00;;;;;20.00;46.57;100831.78;5082192;27;45332;-60
2023/08/31 09:52:57;;;;;;;;;5.00;4.00;;;;;20.04;46.90;100828.03;5082599;27;45169;-59
2023/08/31 09:55:27;;;;;;;;;8.25;4.50;;;;;20.08;46.87;100825.09;5082186;27;45280;-60
2023/08/31 09:57:56;;;;;;;;;3.50;3.50;;;;;20.11;46.58;100822.28;5115412;27;45634;-59
2023/08/31 10:00:22;;;;;;;;;4.75;4.00;;;;;20.15;46.71;100828.31;5082703;27;45307;-60
2023/08/31 10:02:49;;;;;;;;;5.00;4.00;;;;;20.17;47.00;100829.09;5082450;27;45212;-60
2023/08/31 10:05:15;;;;;;;;;5.00;5.00;;;;;20.19;47.23;100832.53;5082186;27;45318;-60
2023/08/31 10:07:42;;;;;;;;;3.00;3.00;;;;;20.22;46.57;100835.03;5082182;27;45330;-60
2023/08/31 10:10:08;;;;;;;;;4.00;3.75;;;;;20.25;46.69;100840.22;5082439;27;45359;-60
2023/08/31 10:12:35;;;;;;;;;4.50;4.00;;;;;20.25;46.77;100834.88;5114999;27;45438;-60
2023/08/31 10:15:01;;;;;;;;;4.50;3.50;;;;;20.25;46.68;100818.88;5082204;27;45359;-60
2023/08/31 10:17:27;;;;;;;;;5.00;4.00;;;;;20.25;47.08;100818.88;5082267;27;45327;-59
2023/08/31 10:19:55;;;;;;;;;5.25;4.00;;;;;20.27;47.09;100819.66;5082287;27;45432;-60
2023/08/31 10:22:21;;;;;;;;;6.25;6.00;;;;;20.28;47.05;100824.03;5082091;28;45558;-59
2023/08/31 10:24:59;;;;;;;;;6.25;3.75;;;;;20.30;47.31;100818.63;5082087;27;45387;-60
2023/08/31 10:27:27;;;;;;;;;7.00;5.25;;;;;20.30;47.28;100818.63;5114706;27;45273;-60
2023/08/31 10:29:53;;;;;;;;;6.75;6.00;;;;;20.26;47.18;100798.38;5082349;27;45571;-60
2023/08/31 10:32:19;;;;;;;;;6.25;5.00;;;;;20.32;46.90;100816.75;5081813;27;45266;-60
2023/08/31 10:35:04;;;;;;;;;6.00;6.00;;;;;20.34;46.89;100813.97;5081842;27;45425;-59
2023/08/31 10:37:29;;;;;;;;;6.75;6.00;;;;;20.35;47.25;100813.03;5081743;27;45305;-60
2023/08/31 10:40:11;;;;;;;;;9.75;5.50;;;;;20.37;47.75;100812.00;5082025;27;45428;-60
2023/08/31 10:43:07;;;;;;;;;10.75;6.00;;;;;20.38;47.31;100805.72;5081854;27;45482;-60
2023/08/31 10:45:43;;;;;;;;;4.50;4.50;;;;;20.36;47.41;100804.09;5079960;27;46815;-60
2023/08/31 10:48:08;;;;;;;;;5.00;5.00;;;;;20.37;47.63;100809.34;5081730;27;45349;-60
2023/08/31 10:50:41;;;;;;;;;8.50;4.50;;;;;20.39;47.46;100799.47;5081348;28;45950;-59
2023/08/31 10:53:09;;;;;;;;;7.75;5.00;;;;;20.39;47.23;100799.47;5081953;27;45279;-59
2023/08/31 10:55:52;;;;;;;;;5.00;4.00;;;;;20.39;47.30;100798.56;5081362;27;45365;-59
2023/08/31 10:58:18;;;;;;;;;5.00;5.00;;;;;20.39;47.53;100796.78;5081470;27;45435;-60
2023/08/31 11:00:53;;;;;;;;;9.25;7.25;;;;;20.37;47.36;100796.00;5114746;27;45299;-59
2023/08/31 11:03:18;;;;;;;;;5.50;4.50;;;;;20.36;47.25;100796.09;5081227;27;45283;-59
2023/08/31 11:05:52;;;;;;;;;5.50;4.00;;;;;20.33;47.88;100789.13;5081462;27;45319;-59
2023/08/31 11:08:21;;;;;;;;;5.25;5.00;;;;;20.35;47.54;100786.34;5080062;28;45244;-59
2023/08/31 11:10:47;;;;;;;;;4.00;3.00;;;;;20.36;47.70;100786.25;5081587;27;45370;-59
2023/08/31 11:13:17;;;;;;;;;5.00;3.00;;;;;20.37;47.01;100790.66;5114140;27;45372;-59
2023/08/31 11:15:46;;;;;;;;;8.00;6.00;;;;;20.36;47.48;100794.28;5081442;27;45295;-59
2023/08/31 11:18:12;;;;;;;;;7.00;5.00;;;;;20.37;47.56;100780.00;5110540;27;45475;-59
2023/08/31 11:20:38;;;;;;;;;6.50;3.50;;;;;20.35;47.24;100781.03;5074543;28;45341;-59
2023/08/31 11:23:03;;;;;;;;;5.00;4.00;;;;;20.36;47.08;100786.25;5081346;28;45575;-59